Time;durP1;ratioP1;P1;durP2;ratioP2;P2;SDS_P1;SDS_P2;PMS_P1;PMS_P2;Temp;Humidity;BMP_temperature;BMP_pressure;BME280_temperature;BME280_humidity;BME280_pressure;Samples;Min_cycle;Max_cycle;Signal;HPM_P1;HPM_P2
2021/08/14 00:01:16;;;;;;;18.50;6.80;;;;;;;18.98;73.15;101525.73;1809599;78;20980;-61
2021/08/14 00:03:43;;;;;;;24.50;7.50;;;;;;;18.99;73.30;101526.16;1773719;79;21425;-59
2021/08/14 00:06:11;;;;;;;14.95;7.20;;;;;;;19.00;73.51;101522.48;1806928;79;20974;-59
2021/08/14 00:08:39;;;;;;;18.60;7.45;;;;;;;18.98;73.50;101525.73;1807554;78;21083;-59
2021/08/14 00:11:07;;;;;;;18.62;7.42;;;;;;;18.98;73.48;101530.70;1807605;79;21028;-60
2021/08/14 00:13:34;;;;;;;17.02;7.90;;;;;;;18.95;73.67;101525.92;1801517;79;21032;-62
2021/08/14 00:16:01;;;;;;;21.70;7.37;;;;;;;18.89;73.84;101523.07;1809822;78;21845;-61
2021/08/14 00:18:30;;;;;;;18.07;7.62;;;;;;;18.86;74.11;101528.69;1801413;78;21057;-60
2021/08/14 00:20:57;;;;;;;11.33;6.35;;;;;;;18.84;74.17;101531.48;1790682;79;21020;-60
2021/08/14 00:23:24;;;;;;;17.45;7.10;;;;;;;18.80;74.33;101525.83;1782093;79;20964;-60
2021/08/14 00:25:55;;;;;;;15.93;7.55;;;;;;;18.76;74.34;101527.84;1781869;78;21034;-61
2021/08/14 00:28:21;;;;;;;19.75;7.83;;;;;;;18.74;74.52;101537.06;1778649;79;21119;-61
2021/08/14 00:30:48;;;;;;;16.52;8.13;;;;;;;18.68;74.72;101531.95;1722279;82;21004;-60
2021/08/14 00:33:15;;;;;;;17.57;8.05;;;;;;;18.65;75.00;101527.59;1793979;79;21474;-59
2021/08/14 00:35:43;;;;;;;17.05;8.20;;;;;;;18.64;75.15;101530.38;1779884;79;21024;-60
2021/08/14 00:38:10;;;;;;;13.08;7.72;;;;;;;18.59;75.57;101532.02;1778040;79;20989;-59
2021/08/14 00:40:40;;;;;;;14.90;7.92;;;;;;;18.56;75.67;101522.66;1774355;79;21039;-59
2021/08/14 00:43:07;;;;;;;18.32;8.05;;;;;;;18.51;75.91;101527.48;1776320;79;21139;-59
2021/08/14 00:45:41;;;;;;;18.90;8.70;;;;;;;18.47;76.09;101530.38;1783836;79;21094;-59
2021/08/14 00:48:08;;;;;;;12.15;7.47;;;;;;;18.48;76.37;101529.91;1775612;79;20925;-60
2021/08/14 00:50:37;;;;;;;14.80;7.75;;;;;;;18.50;76.43;101534.77;1745589;80;21059;-60
2021/08/14 00:53:05;;;;;;;19.05;8.60;;;;;;;18.50;76.33;101529.34;1745425;80;21449;-59
2021/08/14 00:55:32;;;;;;;18.82;8.60;;;;;;;18.49;76.36;101531.66;1790664;79;20998;-60
2021/08/14 00:58:00;;;;;;;15.95;8.50;;;;;;;18.47;76.49;101533.59;1792603;79;21020;-60
2021/08/14 01:00:27;;;;;;;24.35;9.48;;;;;;;18.43;76.64;101527.91;1786396;79;21050;-60
2021/08/14 01:02:56;;;;;;;24.02;8.93;;;;;;;18.36;76.86;101527.88;1780999;79;21017;-60
2021/08/14 01:05:47;;;;;;;16.73;9.08;;;;;;;18.32;77.16;101523.97;1738709;80;21131;-60
2021/08/14 01:08:14;;;;;;;20.32;8.78;;;;;;;18.32;77.27;101518.55;1772972;79;21074;-60
2021/08/14 01:10:43;;;;;;;24.50;9.40;;;;;;;18.33;77.48;101517.58;1776937;79;21044;-60
2021/08/14 01:13:12;;;;;;;24.25;9.40;;;;;;;18.33;77.51;101514.87;1778002;79;20992;-60
2021/08/14 01:15:49;;;;;;;18.42;9.30;;;;;;;18.31;77.63;101508.65;1788533;79;21023;-60
2021/08/14 01:18:17;;;;;;;19.15;8.68;;;;;;;18.26;77.76;101512.11;1776222;79;22122;-61
2021/08/14 01:21:30;;;;;;;17.20;9.23;;;;;;;18.19;78.19;101509.31;1776977;79;21048;-61
2021/08/14 01:24:15;;;;;;;19.10;8.80;;;;;;;18.15;78.49;101505.02;1749345;80;21496;-61
2021/08/14 01:26:44;;;;;;;20.30;9.95;;;;;;;18.11;78.90;101506.16;1777831;80;21682;-60
2021/08/14 01:29:11;;;;;;;17.40;9.90;;;;;;;18.08;79.10;101504.48;1770447;80;21001;-61
2021/08/14 01:31:40;;;;;;;21.97;10.20;;;;;;;18.06;79.35;101501.47;1776466;80;21039;-60
2021/08/14 01:34:07;;;;;;;23.85;10.15;;;;;;;18.03;79.59;101504.75;1767517;80;20925;-61
2021/08/14 01:36:33;;;;;;;19.87;9.85;;;;;;;18.02;79.73;101507.53;1772839;79;21088;-60
2021/08/14 01:39:03;;;;;;;19.12;10.53;;;;;;;18.00;80.10;101503.50;1773266;80;20934;-59
2021/08/14 01:41:30;;;;;;;25.62;11.25;;;;;;;17.98;80.19;101498.64;1770201;80;21084;-59
2021/08/14 01:44:06;;;;;;;22.42;10.68;;;;;;;17.98;80.21;101501.86;1767144;79;21121;-59
2021/08/14 01:46:41;;;;;;;20.55;10.35;;;;;;;17.95;80.36;101497.46;1763989;80;21020;-60
2021/08/14 01:49:08;;;;;;;20.60;11.85;;;;;;;17.92;80.57;101496.28;1770643;79;21387;-60
2021/08/14 01:51:36;;;;;;;24.25;10.93;;;;;;;17.90;80.71;101499.55;1763306;80;21084;-61
2021/08/14 01:54:06;;;;;;;17.75;10.35;;;;;;;17.89;81.02;101501.87;1775979;80;21080;-59
2021/08/14 01:56:34;;;;;;;19.00;11.60;;;;;;;17.88;81.24;101498.77;1771120;79;21687;-59
2021/08/14 01:59:01;;;;;;;21.93;10.88;;;;;;;17.86;81.27;101504.75;1767655;80;21376;-59
2021/08/14 02:01:28;;;;;;;18.80;10.45;;;;;;;17.88;81.35;101500.12;1772685;80;21080;-62
2021/08/14 02:03:56;;;;;;;21.07;10.93;;;;;;;17.89;81.35;101499.16;1777084;80;20981;-62
2021/08/14 02:06:26;;;;;;;24.70;10.90;;;;;;;17.87;81.18;101501.94;1768942;79;20905;-60
2021/08/14 02:08:54;;;;;;;22.02;10.98;;;;;;;17.85;81.18;101503.00;1775492;78;21108;-61
2021/08/14 02:11:27;;;;;;;18.87;11.05;;;;;;;17.85;81.10;101501.64;1762858;79;21588;-62
2021/08/14 02:13:54;;;;;;;25.10;11.97;;;;;;;17.83;81.13;101503.07;1766224;80;21045;-63
2021/08/14 02:16:21;;;;;;;25.12;11.30;;;;;;;17.80;81.24;101502.38;1732535;82;21028;-61
2021/08/14 02:18:49;;;;;;;25.88;11.18;;;;;;;17.76;81.39;101505.23;1735924;82;20984;-62
2021/08/14 02:21:16;;;;;;;20.90;11.33;;;;;;;17.72;81.43;101503.64;1729517;82;21930;-60
2021/08/14 02:23:45;;;;;;;21.37;11.38;;;;;;;17.65;81.63;101500.88;1748147;80;21061;-62
2021/08/14 02:26:12;;;;;;;20.25;11.20;;;;;;;17.59;82.00;101500.71;1732492;82;21057;-61
2021/08/14 02:28:39;;;;;;;23.05;11.05;;;;;;;17.55;82.34;101498.23;1753490;81;20985;-60
2021/08/14 02:31:07;;;;;;;18.10;11.15;;;;;;;17.51;82.49;101498.89;1736313;82;20962;-60
2021/08/14 02:34:20;;;;;;;26.17;11.95;;;;;;;17.49;82.73;101498.56;1731021;81;21078;-60
2021/08/14 02:36:47;;;;;;;19.92;11.55;;;;;;;17.47;82.90;101494.10;1733286;82;20977;-59
2021/08/14 02:39:14;;;;;;;20.55;10.85;;;;;;;17.45;82.99;101498.73;1730208;82;21517;-59
2021/08/14 02:41:42;;;;;;;19.12;11.12;;;;;;;17.43;83.13;101499.30;1729997;82;21088;-60
2021/08/14 02:44:09;;;;;;;24.40;11.30;;;;;;;17.43;83.29;101502.47;1722084;82;21116;-61
2021/08/14 02:46:38;;;;;;;21.87;10.32;;;;;;;17.42;83.33;101500.71;1744586;80;21040;-61
2021/08/14 02:49:06;;;;;;;22.60;11.35;;;;;;;17.39;83.52;101503.12;1743159;80;21440;-60
2021/08/14 02:51:33;;;;;;;21.62;10.72;;;;;;;17.37;83.66;101509.11;1736033;82;21108;-60
2021/08/14 02:54:02;;;;;;;17.98;11.08;;;;;;;17.38;83.80;101496.41;1736519;82;21613;-60
2021/08/14 02:56:30;;;;;;;21.07;10.58;;;;;;;17.36;83.87;101503.29;1731013;81;21030;-60
2021/08/14 02:58:57;;;;;;;21.33;10.20;;;;;;;17.34;84.03;101497.04;1803099;79;21359;-60
2021/08/14 03:01:26;;;;;;;23.85;10.50;;;;;;;17.33;84.13;101505.66;1796581;79;20980;-60
2021/08/14 03:03:55;;;;;;;22.70;10.48;;;;;;;17.32;84.26;101509.80;1798139;79;20976;-60
2021/08/14 03:06:25;;;;;;;25.92;11.10;;;;;;;17.31;84.40;101505.33;1803110;79;21025;-61
2021/08/14 03:08:53;;;;;;;21.23;10.43;;;;;;;17.29;84.60;101503.19;1787514;79;21005;-61
2021/08/14 03:11:22;;;;;;;27.65;10.93;;;;;;;17.29;84.78;101516.73;1797928;79;21024;-59
2021/08/14 03:16:42;;;;;;;17.30;10.78;;;;;;;17.29;85.03;101520.34;1794097;79;21024;-59
2021/08/14 03:19:09;;;;;;;19.40;10.35;;;;;;;17.32;84.96;101514.75;1785263;79;20878;-59
2021/08/14 03:21:38;;;;;;;18.95;9.88;;;;;;;17.37;84.75;101521.77;1802582;79;21028;-60
2021/08/14 03:24:07;;;;;;;17.17;10.40;;;;;;;17.41;84.54;101520.64;1788284;79;21430;-60
2021/08/14 03:26:34;;;;;;;17.15;9.98;;;;;;;17.47;84.15;101527.12;1793014;79;21228;-60
2021/08/14 03:29:01;;;;;;;22.73;10.23;;;;;;;17.53;83.96;101517.77;1785951;79;21088;-59
2021/08/14 03:31:28;;;;;;;20.62;10.75;;;;;;;17.58;83.69;101517.94;1793844;79;21073;-60
2021/08/14 03:33:55;;;;;;;17.23;10.20;;;;;;;17.67;83.42;101522.00;1794807;79;20902;-60
2021/08/14 03:36:22;;;;;;;17.30;10.20;;;;;;;17.75;82.84;101521.11;1788041;79;21037;-61
2021/08/14 03:38:51;;;;;;;16.32;9.03;;;;;;;17.83;82.49;101518.48;1791305;79;21021;-62
2021/08/14 03:41:18;;;;;;;22.70;9.98;;;;;;;17.89;82.06;101527.64;1788223;79;21556;-61
2021/08/14 03:43:44;;;;;;;15.80;9.38;;;;;;;17.94;81.79;101526.91;1779281;79;21455;-61
2021/08/14 03:46:11;;;;;;;21.80;9.90;;;;;;;18.01;81.47;101526.99;1792466;79;20928;-61
2021/08/14 03:48:39;;;;;;;20.70;10.15;;;;;;;18.09;81.20;101529.80;1786505;79;21119;-61
2021/08/14 03:51:06;;;;;;;20.23;9.85;;;;;;;18.20;80.83;101534.14;1787415;79;20986;-61
2021/08/14 03:53:32;;;;;;;19.05;10.38;;;;;;;18.29;80.22;101537.72;1787429;79;21033;-61
2021/08/14 03:55:59;;;;;;;17.73;10.28;;;;;;;18.36;79.83;101531.94;1793385;79;21017;-61
2021/08/14 03:58:35;;;;;;;19.70;9.83;;;;;;;18.41;79.63;101535.27;1786789;79;21517;-61
2021/08/14 04:01:02;;;;;;;19.98;9.68;;;;;;;18.51;79.20;101537.88;1794532;79;22466;-61
2021/08/14 04:03:30;;;;;;;17.62;10.53;;;;;;;18.57;78.74;101540.24;1785170;79;21014;-61
2021/08/14 04:05:57;;;;;;;18.77;10.70;;;;;;;18.61;78.63;101528.23;1787551;79;21442;-61
2021/08/14 04:08:26;;;;;;;20.50;9.90;;;;;;;18.72;78.45;101536.27;1780425;79;21044;-61
2021/08/14 04:10:53;;;;;;;16.23;9.70;;;;;;;18.82;78.03;101534.77;1784654;79;21410;-61
2021/08/14 04:13:20;;;;;;;19.60;9.68;;;;;;;18.92;77.45;101539.69;1789774;79;21126;-61
2021/08/14 04:15:47;;;;;;;15.50;9.93;;;;;;;19.00;77.16;101536.06;1795911;79;21123;-61
2021/08/14 04:18:15;;;;;;;19.98;10.15;;;;;;;19.11;76.61;101541.73;1791434;79;21136;-62
2021/08/14 04:20:44;;;;;;;18.73;9.75;;;;;;;19.16;76.22;101538.28;1741253;81;20969;-62
2021/08/14 04:23:12;;;;;;;24.92;10.15;;;;;;;19.25;76.02;101542.77;1726673;82;20983;-63
2021/08/14 04:25:40;;;;;;;19.45;9.70;;;;;;;19.34;75.66;101540.84;1764473;80;21470;-62
2021/08/14 04:28:08;;;;;;;15.10;9.18;;;;;;;19.44;75.23;101542.06;1752390;81;20989;-62
2021/08/14 04:30:35;;;;;;;20.02;10.10;;;;;;;19.57;74.88;101537.27;1747732;81;21062;-61
2021/08/14 04:33:01;;;;;;;19.75;10.00;;;;;;;19.68;74.42;101534.75;1748151;80;21110;-60
2021/08/14 04:35:28;;;;;;;20.27;9.93;;;;;;;19.82;74.12;101545.27;1748667;80;21052;-62
2021/08/14 04:37:55;;;;;;;16.67;9.40;;;;;;;19.94;73.43;101550.48;1749065;81;21370;-60
2021/08/14 04:40:25;;;;;;;20.15;9.55;;;;;;;19.99;73.15;101547.84;1754801;80;20988;-60
2021/08/14 04:42:52;;;;;;;17.40;9.80;;;;;;;20.06;73.14;101541.52;1776551;79;21555;-62
2021/08/14 04:45:19;;;;;;;21.85;10.53;;;;;;;20.20;72.90;101552.05;1764776;80;21012;-61
2021/08/14 04:47:50;;;;;;;28.80;11.48;;;;;;;20.31;72.60;101542.22;1757087;81;21057;-61
2021/08/14 04:50:17;;;;;;;22.13;10.15;;;;;;;20.43;72.05;101549.20;1749643;81;21795;-61
2021/08/14 04:52:44;;;;;;;17.27;10.68;;;;;;;20.50;71.61;101550.58;1754581;81;21037;-61
2021/08/14 04:55:11;;;;;;;22.85;11.48;;;;;;;20.59;71.58;101545.87;1755129;81;21371;-60
2021/08/14 04:57:39;;;;;;;20.02;10.53;;;;;;;20.72;71.27;101546.45;1751767;81;21036;-60
2021/08/14 05:00:07;;;;;;;20.97;10.20;;;;;;;20.81;70.96;101556.77;1747349;81;21449;-61
2021/08/14 05:02:34;;;;;;;15.65;9.60;;;;;;;20.89;70.81;101553.06;1757331;81;21965;-60
2021/08/14 05:05:01;;;;;;;26.75;9.70;;;;;;;21.00;70.80;101550.99;1753412;81;20981;-60
2021/08/14 05:07:30;;;;;;;23.15;11.03;;;;;;;21.14;70.40;101559.61;1752501;81;22120;-61
2021/08/14 05:09:57;;;;;;;19.73;9.80;;;;;;;21.23;69.82;101555.39;1758115;81;21060;-62
2021/08/14 05:12:24;;;;;;;18.45;9.23;;;;;;;21.36;69.88;101560.88;1756906;81;21098;-61
2021/08/14 05:14:51;;;;;;;17.42;10.13;;;;;;;21.53;69.38;101556.09;1749680;81;21799;-61
2021/08/14 05:17:18;;;;;;;18.60;9.43;;;;;;;21.68;68.50;101552.34;1759431;81;21058;-60
2021/08/14 05:19:45;;;;;;;15.68;9.45;;;;;;;21.80;68.34;101551.13;1760202;81;21067;-60
2021/08/14 05:22:14;;;;;;;19.25;9.50;;;;;;;21.96;68.09;101546.81;1752610;81;21453;-61
2021/08/14 05:24:41;;;;;;;21.65;10.28;;;;;;;22.11;67.82;101553.03;1745625;81;21049;-61
2021/08/14 05:27:11;;;;;;;18.67;9.13;;;;;;;22.27;67.45;101552.80;1742503;81;21418;-60
2021/08/14 05:29:39;;;;;;;16.45;8.43;;;;;;;22.41;66.52;101559.51;1744871;82;21316;-61
2021/08/14 05:32:07;;;;;;;18.05;8.50;;;;;;;22.52;65.32;101549.20;1738051;81;21585;-60
2021/08/14 05:34:35;;;;;;;26.70;8.63;;;;;;;22.70;64.66;101557.88;1739157;81;21038;-60
2021/08/14 05:37:02;;;;;;;14.93;7.65;;;;;;;22.85;63.48;101553.13;1742620;82;21060;-60
2021/08/14 05:39:29;;;;;;;16.23;8.23;;;;;;;23.00;61.73;101554.34;1732227;82;21854;-60
2021/08/14 05:41:56;;;;;;;16.25;7.78;;;;;;;23.14;60.77;101562.39;1738967;81;21052;-60
2021/08/14 05:44:23;;;;;;;16.45;7.22;;;;;;;23.24;60.33;101563.05;1730759;81;21148;-60
2021/08/14 05:46:50;;;;;;;16.40;7.80;;;;;;;23.30;58.96;101564.86;1741380;81;22517;-61
2021/08/14 05:49:18;;;;;;;14.47;7.33;;;;;;;23.34;59.15;101558.67;1732048;82;21048;-60
2021/08/14 05:51:46;;;;;;;17.67;6.83;;;;;;;23.44;58.13;101568.41;1734885;81;21542;-60
2021/08/14 05:54:12;;;;;;;12.90;5.80;;;;;;;23.51;57.10;101559.20;1739680;81;21017;-60
2021/08/14 05:56:40;;;;;;;18.62;6.10;;;;;;;23.59;56.22;101554.03;1729741;81;21062;-61
2021/08/14 05:59:08;;;;;;;16.75;6.00;;;;;;;23.70;56.14;101560.89;1797281;79;20981;-61
2021/08/14 06:01:35;;;;;;;14.80;6.08;;;;;;;23.88;55.49;101553.11;1793566;79;21380;-61
2021/08/14 06:04:03;;;;;;;10.78;5.58;;;;;;;24.03;54.14;101563.37;1788258;79;21139;-61
2021/08/14 06:06:30;;;;;;;11.33;5.90;;;;;;;24.14;53.76;101547.92;1798941;79;21572;-61
2021/08/14 06:08:57;;;;;;;12.78;5.42;;;;;;;24.20;54.01;101536.46;1792736;79;21498;-62
2021/08/14 06:11:26;;;;;;;9.90;5.55;;;;;;;24.37;53.85;101543.34;1798601;79;21085;-62
2021/08/14 06:13:53;;;;;;;10.68;5.37;;;;;;;24.52;53.07;101542.58;1794199;79;21492;-62
2021/08/14 06:16:22;;;;;;;6.42;4.40;;;;;;;24.58;52.19;101543.95;1792859;79;21126;-62
2021/08/14 06:18:49;;;;;;;10.75;5.37;;;;;;;24.61;50.88;101545.05;1790007;79;20962;-62
2021/08/14 06:21:17;;;;;;;9.78;5.10;;;;;;;24.64;51.06;101548.91;1789434;79;21324;-61
2021/08/14 06:23:45;;;;;;;12.18;5.65;;;;;;;24.70;51.23;101544.80;1791435;79;21066;-62
2021/08/14 06:26:13;;;;;;;12.80;4.80;;;;;;;24.76;51.05;101540.20;1789874;79;20977;-61
2021/08/14 06:28:41;;;;;;;6.50;3.47;;;;;;;24.82;50.62;101561.62;1737600;80;21260;-61
2021/08/14 06:31:08;;;;;;;11.80;3.70;;;;;;;24.92;48.96;101547.16;1727720;82;21033;-62
2021/08/14 06:33:34;;;;;;;10.08;3.47;;;;;;;24.98;48.53;101546.14;1777720;79;21149;-62
2021/08/14 06:36:02;;;;;;;8.05;4.35;;;;;;;25.10;48.49;101542.86;1717918;82;21025;-62
2021/08/14 06:38:29;;;;;;;8.85;4.50;;;;;;;25.17;48.80;101545.45;1744703;81;21557;-61
2021/08/14 06:40:57;;;;;;;11.78;4.90;;;;;;;25.21;49.09;101541.06;1733850;81;21143;-61
2021/08/14 06:43:25;;;;;;;10.10;3.60;;;;;;;25.34;49.56;101544.52;1739248;81;21111;-61
2021/08/14 06:45:52;;;;;;;6.30;3.62;;;;;;;25.49;48.42;101557.45;1759748;80;21577;-61
2021/08/14 06:48:19;;;;;;;4.33;2.98;;;;;;;25.59;47.98;101541.91;1732304;82;21357;-61
2021/08/14 06:50:46;;;;;;;7.55;3.25;;;;;;;25.61;47.26;101548.65;1733266;82;21072;-62
2021/08/14 06:53:13;;;;;;;6.53;2.80;;;;;;;25.62;46.77;101546.76;1735326;82;21230;-62
2021/08/14 06:55:42;;;;;;;9.65;3.33;;;;;;;25.61;46.68;101544.53;1734601;82;21009;-62
2021/08/14 06:58:09;;;;;;;7.75;2.90;;;;;;;25.57;46.92;101554.90;1732833;82;20945;-62
2021/08/14 07:00:36;;;;;;;9.35;4.05;;;;;;;25.65;46.53;101548.75;1733806;82;21581;-62
2021/08/14 07:03:07;;;;;;;8.65;3.60;;;;;;;25.73;46.85;101553.05;1750966;80;21049;-63
2021/08/14 07:05:40;;;;;;;8.03;3.90;;;;;;;25.81;46.88;101568.02;1795429;79;21140;-62
2021/08/14 07:08:07;;;;;;;7.00;3.42;;;;;;;25.87;46.08;101555.11;1786098;79;22277;-63
2021/08/14 07:10:36;;;;;;;5.25;3.00;;;;;;;25.85;45.81;101562.09;1803138;78;21369;-63
2021/08/14 07:13:03;;;;;;;11.05;3.22;;;;;;;25.86;45.86;101551.99;1796261;79;21064;-62
2021/08/14 07:18:31;;;;;;;8.55;3.10;;;;;;;25.92;45.25;101568.44;1795608;79;21366;-61
2021/08/14 07:20:58;;;;;;;7.30;2.70;;;;;;;25.98;44.58;101552.30;1797498;78;20880;-62
2021/08/14 07:23:26;;;;;;;9.73;3.15;;;;;;;26.08;44.29;101559.71;1789095;78;21059;-62
2021/08/14 07:25:54;;;;;;;5.58;3.20;;;;;;;26.17;44.48;101562.55;1763886;80;21048;-62
2021/08/14 07:28:21;;;;;;;7.33;3.42;;;;;;;26.19;44.46;101565.14;1773468;80;21060;-61
2021/08/14 07:30:48;;;;;;;6.55;2.92;;;;;;;26.22;44.24;101556.65;1755333;81;21131;-61
2021/08/14 07:33:15;;;;;;;7.33;3.02;;;;;;;26.26;43.91;101564.98;1745449;81;21378;-62
2021/08/14 07:35:43;;;;;;;7.75;2.77;;;;;;;26.24;44.36;101555.11;1808846;79;21885;-62
2021/08/14 07:38:12;;;;;;;8.50;3.10;;;;;;;26.25;43.13;101547.23;1801503;78;21054;-62
2021/08/14 07:40:39;;;;;;;13.43;3.60;;;;;;;26.28;43.17;101558.84;1805660;79;21466;-62
2021/08/14 07:43:08;;;;;;;8.40;3.40;;;;;;;26.33;43.25;101569.91;1802382;79;21130;-62
2021/08/14 07:45:36;;;;;;;4.78;3.85;;;;;;;26.33;42.80;101546.06;1744263;80;21064;-62
2021/08/14 07:48:08;;;;;;;5.75;3.20;;;;;;;26.29;43.08;101556.45;1806148;79;21107;-62
2021/08/14 07:50:35;;;;;;;6.50;3.10;;;;;;;26.20;42.58;101549.05;1807497;79;21565;-62
2021/08/14 07:53:03;;;;;;;7.15;3.33;;;;;;;26.20;43.28;101543.55;1803885;79;21078;-62
2021/08/14 07:55:31;;;;;;;8.38;4.12;;;;;;;26.22;43.73;101549.78;1809065;79;21069;-61
2021/08/14 07:57:58;;;;;;;6.83;3.70;;;;;;;26.24;43.44;101565.63;1797562;79;21069;-61
2021/08/14 08:00:26;;;;;;;5.92;3.02;;;;;;;26.25;43.09;101549.50;1801086;79;21477;-62
2021/08/14 08:02:53;;;;;;;8.70;3.72;;;;;;;26.28;43.28;101540.09;1767450;80;21109;-61
2021/08/14 08:05:20;;;;;;;5.53;3.30;;;;;;;26.36;43.25;101551.77;1804854;79;20897;-62
2021/08/14 08:07:46;;;;;;;10.35;3.37;;;;;;;26.41;42.65;101581.97;1807606;79;21121;-62
2021/08/14 08:10:16;;;;;;;10.00;3.25;;;;;;;26.46;42.66;101541.17;1799904;79;21238;-62
2021/08/14 08:12:43;;;;;;;8.05;3.08;;;;;;;26.46;41.39;101549.94;1805329;78;21044;-62
2021/08/14 08:15:12;;;;;;;5.75;3.00;;;;;;;26.45;41.04;101543.56;1766611;80;21344;-61
2021/08/14 08:17:39;;;;;;;5.17;3.10;;;;;;;26.44;41.15;101540.97;1747578;82;21087;-62
2021/08/14 08:20:09;;;;;;;6.30;2.87;;;;;;;26.43;41.59;101540.61;1736076;81;21857;-61
2021/08/14 08:22:36;;;;;;;7.08;2.75;;;;;;;26.42;41.26;101537.49;1733696;82;21049;-62
2021/08/14 08:25:05;;;;;;;7.78;3.25;;;;;;;26.40;41.39;101533.50;1811682;79;21359;-62
2021/08/14 08:27:32;;;;;;;6.70;2.90;;;;;;;26.42;40.42;101529.25;1806594;78;21143;-62
2021/08/14 08:29:59;;;;;;;6.00;2.95;;;;;;;26.42;40.17;101525.97;1802696;79;21040;-63
2021/08/14 08:32:26;;;;;;;4.45;2.60;;;;;;;26.44;39.37;101529.45;1808612;78;21139;-62
2021/08/14 08:34:53;;;;;;;8.53;2.90;;;;;;;26.45;39.00;101517.44;1801739;78;21000;-62
2021/08/14 08:37:42;;;;;;;9.60;3.85;;;;;;;26.45;39.33;101519.34;1799073;79;21299;-62
2021/08/14 08:40:10;;;;;;;12.45;3.15;;;;;;;26.49;39.30;101518.05;1806685;78;20854;-62
2021/08/14 08:42:37;;;;;;;6.22;2.95;;;;;;;26.51;39.70;101516.02;1802265;78;21425;-62
2021/08/14 08:45:05;;;;;;;4.85;2.77;;;;;;;26.54;39.46;101529.48;1771833;79;21139;-62
2021/08/14 08:47:34;;;;;;;4.83;2.67;;;;;;;26.54;38.96;101528.11;1808889;78;21520;-61
2021/08/14 08:50:01;;;;;;;7.80;3.33;;;;;;;26.64;38.78;101521.75;1804698;79;21080;-61
2021/08/14 08:52:27;;;;;;;5.90;2.77;;;;;;;26.75;38.47;101521.65;1803086;79;21024;-62
2021/08/14 08:54:54;;;;;;;7.10;3.30;;;;;;;26.77;37.56;101521.00;1811216;78;21592;-61
2021/08/14 08:57:22;;;;;;;9.38;2.83;;;;;;;26.77;38.00;101516.02;1806446;78;21188;-61
2021/08/14 08:59:49;;;;;;;5.33;2.95;;;;;;;26.82;37.67;101513.18;1810805;79;21576;-60
2021/08/14 09:02:27;;;;;;;13.13;3.10;;;;;;;26.94;36.24;101522.73;1807236;78;21045;-60
2021/08/14 09:05:16;;;;;;;10.48;3.02;;;;;;;26.98;36.38;101513.17;1802962;79;21003;-61
2021/08/14 09:07:48;;;;;;;12.82;3.60;;;;;;;27.03;35.76;101504.86;1805247;79;21024;-63
2021/08/14 09:10:23;;;;;;;9.25;2.83;;;;;;;27.12;36.00;101507.25;1809106;79;21062;-63
2021/08/14 09:12:50;;;;;;;9.78;2.60;;;;;;;27.19;36.29;101532.81;1806657;78;21094;-61
2021/08/14 09:15:31;;;;;;;7.65;3.25;;;;;;;27.13;36.05;101499.36;1802716;78;21008;-62
2021/08/14 09:18:01;;;;;;;6.92;3.37;;;;;;;27.10;35.04;101539.55;1800512;79;21020;-62
2021/08/14 09:20:29;;;;;;;10.00;2.98;;;;;;;27.05;35.41;101488.19;1807082;79;21458;-61
2021/08/14 09:23:06;;;;;;;8.20;2.95;;;;;;;27.09;34.73;101500.67;1804218;79;21111;-62
2021/08/14 09:25:46;;;;;;;10.80;2.92;;;;;;;27.17;35.51;101488.41;1801608;79;21034;-61
2021/08/14 09:28:19;;;;;;;9.53;3.30;;;;;;;27.34;36.38;101489.20;1804047;78;21474;-61
2021/08/14 09:30:54;;;;;;;8.25;3.08;;;;;;;27.45;36.50;101485.77;1797085;79;21051;-62
2021/08/14 09:33:24;;;;;;;5.12;2.80;;;;;;;27.53;35.08;101496.09;1791668;79;21412;-61
2021/08/14 09:36:06;;;;;;;13.68;3.08;;;;;;;27.50;35.11;101476.19;1800105;79;21807;-60
2021/08/14 09:38:48;;;;;;;11.73;3.35;;;;;;;27.54;36.66;101476.31;1802964;79;21529;-61
2021/08/14 09:41:20;;;;;;;7.90;2.90;;;;;;;27.65;37.73;101475.28;1798844;79;21451;-61
2021/08/14 09:43:49;;;;;;;5.42;2.85;;;;;;;27.74;38.49;101479.88;1792198;79;21583;-61
2021/08/14 09:46:17;;;;;;;8.63;2.95;;;;;;;27.77;38.52;101477.34;1795833;79;20973;-60
2021/08/14 09:48:56;;;;;;;11.60;3.25;;;;;;;27.81;38.21;101463.63;1790258;79;21121;-61
2021/08/14 09:51:29;;;;;;;7.58;3.58;;;;;;;27.85;38.63;101478.83;1797177;79;21012;-61
2021/08/14 09:53:58;;;;;;;12.00;3.10;;;;;;;27.86;38.27;101466.79;1798219;79;21465;-60
2021/08/14 09:56:26;;;;;;;8.45;2.55;;;;;;;27.92;38.69;101465.33;1799844;79;20961;-61
2021/08/14 09:58:53;;;;;;;7.53;3.10;;;;;;;28.00;38.34;101464.94;1789789;79;21044;-61
2021/08/14 10:01:20;;;;;;;11.65;3.35;;;;;;;28.01;37.96;101463.91;1798493;79;21945;-61
2021/08/14 10:03:48;;;;;;;7.65;3.45;;;;;;;27.94;39.47;101480.67;1795570;79;20929;-61
2021/08/14 10:06:16;;;;;;;9.63;3.30;;;;;;;27.85;39.01;101458.17;1733564;80;21082;-61
2021/08/14 10:08:44;;;;;;;6.80;3.15;;;;;;;27.88;37.05;101459.23;1740552;81;21063;-62
2021/08/14 10:11:13;;;;;;;5.83;2.90;;;;;;;27.92;38.66;101455.16;1734268;82;20959;-61
2021/08/14 10:13:42;;;;;;;4.92;3.10;;;;;;;27.97;38.92;101446.45;1764603;80;21550;-61
2021/08/14 10:16:10;;;;;;;5.72;3.00;;;;;;;28.01;38.74;101440.48;1791095;79;20958;-61
2021/08/14 10:18:39;;;;;;;7.65;3.50;;;;;;;28.08;38.89;101449.52;1794991;79;21498;-61
2021/08/14 10:21:09;;;;;;;6.10;3.60;;;;;;;28.07;38.77;101440.36;1787923;79;20970;-61
2021/08/14 10:23:36;;;;;;;5.30;3.15;;;;;;;28.05;38.62;101441.55;1789705;79;20957;-60
2021/08/14 10:26:06;;;;;;;8.25;3.02;;;;;;;28.00;38.65;101440.13;1778209;79;21414;-61
2021/08/14 10:28:52;;;;;;;4.90;3.40;;;;;;;28.05;38.35;101438.80;1800064;79;21061;-61
2021/08/14 10:31:37;;;;;;;7.03;3.25;;;;;;;28.08;39.03;101437.11;1797838;79;21058;-60
2021/08/14 10:34:15;;;;;;;5.92;2.80;;;;;;;28.12;39.18;101441.30;1781892;79;21100;-62
2021/08/14 10:36:43;;;;;;;5.90;3.12;;;;;;;28.02;39.73;101428.44;1803457;79;21043;-62
2021/08/14 10:39:24;;;;;;;10.20;3.42;;;;;;;27.95;40.17;101432.80;1795960;79;21844;-62
2021/08/14 10:41:57;;;;;;;5.72;3.00;;;;;;;27.92;38.38;101420.71;1800618;79;20981;-61
2021/08/14 10:44:50;;;;;;;3.50;2.72;;;;;;;27.94;39.71;101426.94;1790121;79;21108;-61
2021/08/14 10:47:40;;;;;;;4.08;3.00;;;;;;;27.97;38.42;101422.53;1732867;82;20984;-62
2021/08/14 10:50:10;;;;;;;7.03;3.70;;;;;;;27.98;39.75;101417.87;1720077;82;21494;-61
2021/08/14 10:52:37;;;;;;;5.97;3.12;;;;;;;27.97;40.14;101414.27;1729660;81;21112;-61
2021/08/14 10:55:11;;;;;;;16.77;3.75;;;;;;;27.94;35.77;101451.73;1764322;80;20981;-60
2021/08/14 10:57:46;;;;;;;16.97;3.50;;;;;;;27.86;37.96;101422.70;1766431;81;21518;-62
2021/08/14 11:00:25;;;;;;;8.83;3.25;;;;;;;27.81;38.64;101423.68;1758669;81;20962;-61
2021/08/14 11:03:06;;;;;;;29.30;3.47;;;;;;;27.78;39.74;101417.10;1724778;82;21424;-62
2021/08/14 11:05:38;;;;;;;10.53;3.20;;;;;;;27.84;39.72;101410.97;1758047;80;21457;-61
2021/08/14 11:08:40;;;;;;;9.43;2.98;;;;;;;27.96;39.57;101418.00;1756783;81;21524;-62
2021/08/14 11:11:37;;;;;;;6.00;2.92;;;;;;;28.05;40.18;101424.49;1755105;81;21056;-61
2021/08/14 11:19:32;;;;;;;5.28;2.70;;;;;;;28.31;38.85;101408.13;1804287;79;21143;-60
2021/08/14 11:25:04;;;;;;;6.75;3.08;;;;;;;28.39;37.40;101409.23;1796686;79;21011;-61
2021/08/14 11:27:33;;;;;;;6.00;2.83;;;;;;;28.33;37.17;101416.27;1799908;79;21092;-63
2021/08/14 11:30:08;;;;;;;9.58;2.92;;;;;;;28.25;36.12;101408.77;1780737;79;21031;-60
2021/08/14 11:32:36;;;;;;;10.93;3.10;;;;;;;28.24;36.15;101400.64;1789538;79;26973;-61
2021/08/14 11:40:31;;;;;;;9.58;3.50;;;;;;;28.52;36.89;101401.46;1780751;79;21025;-59
2021/08/14 11:43:07;;;;;;;7.80;3.50;;;;;;;28.55;36.67;101409.42;1787898;79;21455;-60
2021/08/14 11:50:57;;;;;;;13.38;4.05;;;;;;;28.37;34.52;101398.88;1714216;83;21139;-62
2021/08/14 11:53:40;;;;;;;8.13;3.50;;;;;;;28.38;34.28;101393.72;1790443;79;21031;-61
2021/08/14 11:56:13;;;;;;;8.43;3.10;;;;;;;28.46;35.10;101385.55;1779811;79;21087;-62